sensor_id;sensor_type;location;lat;lon;timestamp;temperature;humidity
42201;DHT22;27869;51.442;7.540;2022-09-17T00:00:36;10.60;99.90
42201;DHT22;27869;51.442;7.540;2022-09-17T00:03:04;10.60;99.90
42201;DHT22;27869;51.442;7.540;2022-09-17T00:05:31;10.60;99.90
42201;DHT22;27869;51.442;7.540;2022-09-17T00:07:58;10.60;99.90
42201;DHT22;27869;51.442;7.540;2022-09-17T00:10:25;10.60;99.90
42201;DHT22;27869;51.442;7.540;2022-09-17T00:12:53;10.60;99.90
42201;DHT22;27869;51.442;7.540;2022-09-17T00:15:20;10.60;99.90
42201;DHT22;27869;51.442;7.540;2022-09-17T00:17:53;10.60;99.90
42201;DHT22;27869;51.442;7.540;2022-09-17T00:20:20;10.60;99.90
42201;DHT22;27869;51.442;7.540;2022-09-17T00:22:47;10.60;99.90
42201;DHT22;27869;51.442;7.540;2022-09-17T00:25:14;10.60;99.90
42201;DHT22;27869;51.442;7.540;2022-09-17T00:27:41;10.60;99.90
42201;DHT22;27869;51.442;7.540;2022-09-17T00:30:11;10.60;99.90
42201;DHT22;27869;51.442;7.540;2022-09-17T00:32:38;10.50;99.90
42201;DHT22;27869;51.442;7.540;2022-09-17T00:35:06;10.50;99.90
42201;DHT22;27869;51.442;7.540;2022-09-17T00:37:33;10.50;99.90
42201;DHT22;27869;51.442;7.540;2022-09-17T00:40:00;10.50;99.90
42201;DHT22;27869;51.442;7.540;2022-09-17T00:42:27;10.50;99.90
42201;DHT22;27869;51.442;7.540;2022-09-17T00:44:55;10.50;99.90
42201;DHT22;27869;51.442;7.540;2022-09-17T00:47:29;10.50;99.90
42201;DHT22;27869;51.442;7.540;2022-09-17T00:50:00;10.50;99.90
42201;DHT22;27869;51.442;7.540;2022-09-17T00:52:32;10.50;99.90
42201;DHT22;27869;51.442;7.540;2022-09-17T00:55:05;10.50;99.90
42201;DHT22;27869;51.442;7.540;2022-09-17T00:57:33;10.50;99.90
42201;DHT22;27869;51.442;7.540;2022-09-17T01:00:02;10.40;99.90
42201;DHT22;27869;51.442;7.540;2022-09-17T01:02:31;10.40;99.90
42201;DHT22;27869;51.442;7.540;2022-09-17T01:04:58;10.40;99.90
42201;DHT22;27869;51.442;7.540;2022-09-17T01:07:43;10.30;99.90
42201;DHT22;27869;51.442;7.540;2022-09-17T01:10:19;10.30;99.90
42201;DHT22;27869;51.442;7.540;2022-09-17T01:12:58;10.30;99.90
42201;DHT22;27869;51.442;7.540;2022-09-17T01:15:35;10.30;99.90
42201;DHT22;27869;51.442;7.540;2022-09-17T01:18:21;10.20;99.90
42201;DHT22;27869;51.442;7.540;2022-09-17T01:21:22;10.30;99.90
42201;DHT22;27869;51.442;7.540;2022-09-17T01:27:21;10.20;99.90
42201;DHT22;27869;51.442;7.540;2022-09-17T01:30:10;10.20;99.90
42201;DHT22;27869;51.442;7.540;2022-09-17T01:32:44;10.20;99.90
42201;DHT22;27869;51.442;7.540;2022-09-17T01:35:18;10.20;99.90
42201;DHT22;27869;51.442;7.540;2022-09-17T01:37:56;10.20;99.90
42201;DHT22;27869;51.442;7.540;2022-09-17T01:40:28;10.10;99.90
42201;DHT22;27869;51.442;7.540;2022-09-17T01:42:58;10.20;99.90
42201;DHT22;27869;51.442;7.540;2022-09-17T01:45:35;10.10;99.90
42201;DHT22;27869;51.442;7.540;2022-09-17T01:48:09;10.10;99.90
42201;DHT22;27869;51.442;7.540;2022-09-17T01:50:41;10.10;99.90
42201;DHT22;27869;51.442;7.540;2022-09-17T01:53:09;10.10;99.90
42201;DHT22;27869;51.442;7.540;2022-09-17T01:55:39;10.00;99.90
42201;DHT22;27869;51.442;7.540;2022-09-17T01:58:12;10.00;99.90
42201;DHT22;27869;51.442;7.540;2022-09-17T02:00:43;10.00;99.90
42201;DHT22;27869;51.442;7.540;2022-09-17T02:03:18;10.00;99.90
42201;DHT22;27869;51.442;7.540;2022-09-17T02:05:49;10.00;99.90
42201;DHT22;27869;51.442;7.540;2022-09-17T02:08:22;10.00;99.90
42201;DHT22;27869;51.442;7.540;2022-09-17T02:10:55;10.00;99.90
42201;DHT22;27869;51.442;7.540;2022-09-17T02:13:27;10.00;99.90
42201;DHT22;27869;51.442;7.540;2022-09-17T02:15:58;10.00;99.90
42201;DHT22;27869;51.442;7.540;2022-09-17T02:18:30;9.90;99.90
42201;DHT22;27869;51.442;7.540;2022-09-17T02:21:04;9.90;99.90
42201;DHT22;27869;51.442;7.540;2022-09-17T02:23:35;9.90;99.90
42201;DHT22;27869;51.442;7.540;2022-09-17T02:26:08;9.90;99.90
42201;DHT22;27869;51.442;7.540;2022-09-17T02:28:40;9.90;99.90
42201;DHT22;27869;51.442;7.540;2022-09-17T02:31:08;10.00;99.90
42201;DHT22;27869;51.442;7.540;2022-09-17T02:33:37;9.90;99.90
42201;DHT22;27869;51.442;7.540;2022-09-17T02:36:06;10.00;99.90
42201;DHT22;27869;51.442;7.540;2022-09-17T02:38:33;10.00;99.90
42201;DHT22;27869;51.442;7.540;2022-09-17T02:41:09;10.00;99.90
42201;DHT22;27869;51.442;7.540;2022-09-17T02:43:44;10.00;99.90
42201;DHT22;27869;51.442;7.540;2022-09-17T02:46:29;10.00;99.90
42201;DHT22;27869;51.442;7.540;2022-09-17T02:49:18;10.00;99.90
42201;DHT22;27869;51.442;7.540;2022-09-17T02:51:54;10.00;99.90
42201;DHT22;27869;51.442;7.540;2022-09-17T02:54:26;10.00;99.90
42201;DHT22;27869;51.442;7.540;2022-09-17T02:57:04;10.00;99.90
42201;DHT22;27869;51.442;7.540;2022-09-17T02:59:38;10.00;99.90
42201;DHT22;27869;51.442;7.540;2022-09-17T03:02:12;10.00;99.90
42201;DHT22;27869;51.442;7.540;2022-09-17T03:04:44;10.00;99.90
42201;DHT22;27869;51.442;7.540;2022-09-17T03:07:13;10.00;99.90
42201;DHT22;27869;51.442;7.540;2022-09-17T03:09:40;10.00;99.90
42201;DHT22;27869;51.442;7.540;2022-09-17T03:12:08;10.00;99.90
42201;DHT22;27869;51.442;7.540;2022-09-17T03:14:35;10.00;99.90
42201;DHT22;27869;51.442;7.540;2022-09-17T03:17:02;10.00;99.90
42201;DHT22;27869;51.442;7.540;2022-09-17T03:19:29;10.00;99.90
42201;DHT22;27869;51.442;7.540;2022-09-17T03:21:58;10.00;99.90
42201;DHT22;27869;51.442;7.540;2022-09-17T03:24:24;10.00;99.90
42201;DHT22;27869;51.442;7.540;2022-09-17T03:26:51;10.00;99.90
42201;DHT22;27869;51.442;7.540;2022-09-17T03:29:18;10.10;99.90
42201;DHT22;27869;51.442;7.540;2022-09-17T03:31:45;10.10;99.90
42201;DHT22;27869;51.442;7.540;2022-09-17T03:34:12;10.00;99.90
42201;DHT22;27869;51.442;7.540;2022-09-17T03:36:39;10.10;99.90
42201;DHT22;27869;51.442;7.540;2022-09-17T03:39:07;10.10;99.90
42201;DHT22;27869;51.442;7.540;2022-09-17T03:41:34;10.10;99.90
42201;DHT22;27869;51.442;7.540;2022-09-17T03:44:01;10.10;99.90
42201;DHT22;27869;51.442;7.540;2022-09-17T03:46:28;10.10;99.90
42201;DHT22;27869;51.442;7.540;2022-09-17T03:48:56;10.10;99.90
42201;DHT22;27869;51.442;7.540;2022-09-17T03:51:22;10.10;99.90
42201;DHT22;27869;51.442;7.540;2022-09-17T03:53:49;10.10;99.90
42201;DHT22;27869;51.442;7.540;2022-09-17T03:56:18;10.10;99.90
42201;DHT22;27869;51.442;7.540;2022-09-17T03:58:45;10.10;99.90
42201;DHT22;27869;51.442;7.540;2022-09-17T04:01:12;10.00;99.90
42201;DHT22;27869;51.442;7.540;2022-09-17T04:03:39;10.10;99.90
42201;DHT22;27869;51.442;7.540;2022-09-17T04:06:06;10.00;99.90
42201;DHT22;27869;51.442;7.540;2022-09-17T04:08:33;10.00;99.90
42201;DHT22;27869;51.442;7.540;2022-09-17T04:11:01;10.00;99.90
42201;DHT22;27869;51.442;7.540;2022-09-17T04:13:29;10.00;99.90
42201;DHT22;27869;51.442;7.540;2022-09-17T04:15:56;10.00;99.90
42201;DHT22;27869;51.442;7.540;2022-09-17T04:18:23;10.00;99.90
42201;DHT22;27869;51.442;7.540;2022-09-17T04:20:50;10.00;99.90
42201;DHT22;27869;51.442;7.540;2022-09-17T04:23:16;10.00;99.90
42201;DHT22;27869;51.442;7.540;2022-09-17T04:25:43;10.00;99.90
42201;DHT22;27869;51.442;7.540;2022-09-17T04:28:10;9.90;99.90
42201;DHT22;27869;51.442;7.540;2022-09-17T04:30:39;10.00;99.90
42201;DHT22;27869;51.442;7.540;2022-09-17T04:33:07;9.90;99.90
42201;DHT22;27869;51.442;7.540;2022-09-17T04:35:34;9.90;99.90
42201;DHT22;27869;51.442;7.540;2022-09-17T04:38:01;9.90;99.90
42201;DHT22;27869;51.442;7.540;2022-09-17T04:40:28;9.90;99.90
42201;DHT22;27869;51.442;7.540;2022-09-17T04:42:56;9.90;99.90
42201;DHT22;27869;51.442;7.540;2022-09-17T04:45:27;9.90;99.90
42201;DHT22;27869;51.442;7.540;2022-09-17T04:47:56;9.90;99.90
42201;DHT22;27869;51.442;7.540;2022-09-17T04:50:23;9.80;99.90
42201;DHT22;27869;51.442;7.540;2022-09-17T04:52:50;9.80;99.90
42201;DHT22;27869;51.442;7.540;2022-09-17T04:55:17;9.80;99.90
42201;DHT22;27869;51.442;7.540;2022-09-17T04:57:48;9.80;99.90
42201;DHT22;27869;51.442;7.540;2022-09-17T05:00:16;9.80;99.90
42201;DHT22;27869;51.442;7.540;2022-09-17T05:02:45;9.80;99.90
42201;DHT22;27869;51.442;7.540;2022-09-17T05:05:14;9.80;99.90
42201;DHT22;27869;51.442;7.540;2022-09-17T05:07:41;9.80;99.90
42201;DHT22;27869;51.442;7.540;2022-09-17T05:10:09;9.80;99.90
42201;DHT22;27869;51.442;7.540;2022-09-17T05:12:36;9.80;99.90
42201;DHT22;27869;51.442;7.540;2022-09-17T05:15:04;9.80;99.90
42201;DHT22;27869;51.442;7.540;2022-09-17T05:17:31;9.90;99.90
42201;DHT22;27869;51.442;7.540;2022-09-17T05:19:58;9.90;99.90
42201;DHT22;27869;51.442;7.540;2022-09-17T05:22:26;9.90;99.90
42201;DHT22;27869;51.442;7.540;2022-09-17T05:24:53;9.90;99.90
42201;DHT22;27869;51.442;7.540;2022-09-17T05:27:20;9.90;99.90
42201;DHT22;27869;51.442;7.540;2022-09-17T05:29:47;9.90;99.90
42201;DHT22;27869;51.442;7.540;2022-09-17T05:32:14;9.90;99.90
42201;DHT22;27869;51.442;7.540;2022-09-17T05:34:40;9.90;99.90
42201;DHT22;27869;51.442;7.540;2022-09-17T05:37:08;9.90;99.90
42201;DHT22;27869;51.442;7.540;2022-09-17T05:39:36;9.90;99.90
42201;DHT22;27869;51.442;7.540;2022-09-17T05:42:04;9.90;99.90
42201;DHT22;27869;51.442;7.540;2022-09-17T05:44:31;9.90;99.90
42201;DHT22;27869;51.442;7.540;2022-09-17T05:46:57;9.90;99.90
42201;DHT22;27869;51.442;7.540;2022-09-17T05:49:24;9.90;99.90
42201;DHT22;27869;51.442;7.540;2022-09-17T05:51:51;9.90;99.90
42201;DHT22;27869;51.442;7.540;2022-09-17T05:54:18;9.90;99.90
42201;DHT22;27869;51.442;7.540;2022-09-17T05:56:46;9.90;99.90
42201;DHT22;27869;51.442;7.540;2022-09-17T05:59:13;10.00;99.90
42201;DHT22;27869;51.442;7.540;2022-09-17T06:01:40;10.00;99.90
42201;DHT22;27869;51.442;7.540;2022-09-17T06:04:08;10.00;99.90
42201;DHT22;27869;51.442;7.540;2022-09-17T06:06:35;10.00;99.90
42201;DHT22;27869;51.442;7.540;2022-09-17T06:09:03;10.00;99.90
42201;DHT22;27869;51.442;7.540;2022-09-17T06:11:30;10.10;99.90
42201;DHT22;27869;51.442;7.540;2022-09-17T06:13:59;10.20;99.90
42201;DHT22;27869;51.442;7.540;2022-09-17T06:16:26;10.20;99.90
42201;DHT22;27869;51.442;7.540;2022-09-17T06:18:53;10.20;99.90
42201;DHT22;27869;51.442;7.540;2022-09-17T06:21:20;10.20;99.90
42201;DHT22;27869;51.442;7.540;2022-09-17T06:23:47;10.30;99.90
42201;DHT22;27869;51.442;7.540;2022-09-17T06:26:14;10.30;99.90
42201;DHT22;27869;51.442;7.540;2022-09-17T06:28:41;10.40;99.90
42201;DHT22;27869;51.442;7.540;2022-09-17T06:31:11;10.40;99.90
42201;DHT22;27869;51.442;7.540;2022-09-17T06:33:38;10.40;99.90
42201;DHT22;27869;51.442;7.540;2022-09-17T06:36:06;10.50;99.90
42201;DHT22;27869;51.442;7.540;2022-09-17T06:38:35;10.50;99.90
42201;DHT22;27869;51.442;7.540;2022-09-17T06:41:02;10.60;99.90
42201;DHT22;27869;51.442;7.540;2022-09-17T06:43:29;10.60;99.90
42201;DHT22;27869;51.442;7.540;2022-09-17T06:45:58;10.60;99.90
42201;DHT22;27869;51.442;7.540;2022-09-17T06:48:27;10.60;99.90
42201;DHT22;27869;51.442;7.540;2022-09-17T06:50:55;10.60;99.90
42201;DHT22;27869;51.442;7.540;2022-09-17T06:53:26;10.70;99.90
42201;DHT22;27869;51.442;7.540;2022-09-17T06:55:55;10.60;99.90
42201;DHT22;27869;51.442;7.540;2022-09-17T06:58:22;10.70;99.90
42201;DHT22;27869;51.442;7.540;2022-09-17T07:00:49;10.70;99.90
42201;DHT22;27869;51.442;7.540;2022-09-17T07:03:16;10.70;99.90
42201;DHT22;27869;51.442;7.540;2022-09-17T07:05:45;10.70;99.90
42201;DHT22;27869;51.442;7.540;2022-09-17T07:08:12;10.70;99.90
42201;DHT22;27869;51.442;7.540;2022-09-17T07:10:39;10.70;99.90
42201;DHT22;27869;51.442;7.540;2022-09-17T07:13:05;10.70;99.90
42201;DHT22;27869;51.442;7.540;2022-09-17T07:15:32;10.70;99.90
42201;DHT22;27869;51.442;7.540;2022-09-17T07:17:59;10.70;99.90
42201;DHT22;27869;51.442;7.540;2022-09-17T07:20:32;10.70;99.90
42201;DHT22;27869;51.442;7.540;2022-09-17T07:23:01;10.70;99.90
42201;DHT22;27869;51.442;7.540;2022-09-17T07:25:28;10.70;99.90
42201;DHT22;27869;51.442;7.540;2022-09-17T07:27:55;10.70;99.90
42201;DHT22;27869;51.442;7.540;2022-09-17T07:30:22;10.80;99.90
42201;DHT22;27869;51.442;7.540;2022-09-17T07:32:49;10.80;99.90
42201;DHT22;27869;51.442;7.540;2022-09-17T07:35:16;10.80;99.90
42201;DHT22;27869;51.442;7.540;2022-09-17T07:37:43;10.90;99.90
42201;DHT22;27869;51.442;7.540;2022-09-17T07:40:11;10.90;99.90
42201;DHT22;27869;51.442;7.540;2022-09-17T07:42:38;11.00;99.90
42201;DHT22;27869;51.442;7.540;2022-09-17T07:45:06;11.00;99.90
42201;DHT22;27869;51.442;7.540;2022-09-17T07:47:38;11.00;99.90
42201;DHT22;27869;51.442;7.540;2022-09-17T07:50:06;11.10;99.90
42201;DHT22;27869;51.442;7.540;2022-09-17T07:52:33;11.20;99.90
42201;DHT22;27869;51.442;7.540;2022-09-17T07:55:00;11.20;99.90
42201;DHT22;27869;51.442;7.540;2022-09-17T07:57:28;11.30;99.90
42201;DHT22;27869;51.442;7.540;2022-09-17T07:59:55;11.30;99.90
42201;DHT22;27869;51.442;7.540;2022-09-17T08:02:22;11.30;99.90
42201;DHT22;27869;51.442;7.540;2022-09-17T08:04:48;11.40;99.90
42201;DHT22;27869;51.442;7.540;2022-09-17T08:07:15;11.50;99.90
42201;DHT22;27869;51.442;7.540;2022-09-17T08:09:42;11.50;99.90
42201;DHT22;27869;51.442;7.540;2022-09-17T08:12:09;11.50;99.90
42201;DHT22;27869;51.442;7.540;2022-09-17T08:14:37;11.50;99.90
42201;DHT22;27869;51.442;7.540;2022-09-17T08:17:06;11.60;99.90
42201;DHT22;27869;51.442;7.540;2022-09-17T08:19:33;11.70;99.90
42201;DHT22;27869;51.442;7.540;2022-09-17T08:22:00;11.70;99.90
42201;DHT22;27869;51.442;7.540;2022-09-17T08:24:27;11.80;99.90
42201;DHT22;27869;51.442;7.540;2022-09-17T08:26:54;11.90;99.90
42201;DHT22;27869;51.442;7.540;2022-09-17T08:29:21;11.90;99.90
42201;DHT22;27869;51.442;7.540;2022-09-17T08:31:49;12.00;99.90
42201;DHT22;27869;51.442;7.540;2022-09-17T08:34:16;12.10;99.90
42201;DHT22;27869;51.442;7.540;2022-09-17T08:36:43;12.20;99.90
42201;DHT22;27869;51.442;7.540;2022-09-17T08:39:10;12.30;99.90
42201;DHT22;27869;51.442;7.540;2022-09-17T08:41:51;12.40;99.90
42201;DHT22;27869;51.442;7.540;2022-09-17T08:44:26;12.40;99.90
42201;DHT22;27869;51.442;7.540;2022-09-17T08:47:01;12.50;99.90
42201;DHT22;27869;51.442;7.540;2022-09-17T08:49:35;12.50;99.90
42201;DHT22;27869;51.442;7.540;2022-09-17T08:52:28;12.60;99.90
42201;DHT22;27869;51.442;7.540;2022-09-17T08:55:05;12.70;99.90
42201;DHT22;27869;51.442;7.540;2022-09-17T08:57:40;12.90;99.90
42201;DHT22;27869;51.442;7.540;2022-09-17T09:00:12;13.00;99.90
42201;DHT22;27869;51.442;7.540;2022-09-17T09:02:56;13.10;99.90
42201;DHT22;27869;51.442;7.540;2022-09-17T09:05:28;13.10;99.90
42201;DHT22;27869;51.442;7.540;2022-09-17T09:08:04;13.00;99.90
42201;DHT22;27869;51.442;7.540;2022-09-17T09:10:35;13.10;99.90
42201;DHT22;27869;51.442;7.540;2022-09-17T09:13:06;13.10;99.90
42201;DHT22;27869;51.442;7.540;2022-09-17T09:15:39;13.20;99.90
42201;DHT22;27869;51.442;7.540;2022-09-17T09:18:16;13.20;99.90
42201;DHT22;27869;51.442;7.540;2022-09-17T09:20:48;13.20;99.90
42201;DHT22;27869;51.442;7.540;2022-09-17T09:23:19;13.20;99.90
42201;DHT22;27869;51.442;7.540;2022-09-17T09:26:05;13.30;99.90
42201;DHT22;27869;51.442;7.540;2022-09-17T09:28:41;13.40;99.90
42201;DHT22;27869;51.442;7.540;2022-09-17T09:31:24;13.50;99.90
42201;DHT22;27869;51.442;7.540;2022-09-17T09:33:54;13.60;99.90
42201;DHT22;27869;51.442;7.540;2022-09-17T09:36:27;13.60;99.90
42201;DHT22;27869;51.442;7.540;2022-09-17T09:38:58;13.70;99.90
42201;DHT22;27869;51.442;7.540;2022-09-17T09:41:31;13.70;99.90
42201;DHT22;27869;51.442;7.540;2022-09-17T09:44:03;13.70;99.90
42201;DHT22;27869;51.442;7.540;2022-09-17T09:46:50;13.80;99.90
42201;DHT22;27869;51.442;7.540;2022-09-17T09:49:33;13.90;99.90
42201;DHT22;27869;51.442;7.540;2022-09-17T09:52:12;14.00;99.90
42201;DHT22;27869;51.442;7.540;2022-09-17T09:54:52;14.10;99.90
42201;DHT22;27869;51.442;7.540;2022-09-17T09:57:21;14.20;99.90
42201;DHT22;27869;51.442;7.540;2022-09-17T10:00:24;14.20;99.90
42201;DHT22;27869;51.442;7.540;2022-09-17T10:02:56;14.30;99.90
42201;DHT22;27869;51.442;7.540;2022-09-17T10:05:26;14.40;99.90
42201;DHT22;27869;51.442;7.540;2022-09-17T10:07:53;14.50;99.90
42201;DHT22;27869;51.442;7.540;2022-09-17T10:10:20;14.50;99.90
42201;DHT22;27869;51.442;7.540;2022-09-17T10:12:47;14.50;99.90
42201;DHT22;27869;51.442;7.540;2022-09-17T10:15:32;14.50;99.90
42201;DHT22;27869;51.442;7.540;2022-09-17T10:18:14;14.60;99.90
42201;DHT22;27869;51.442;7.540;2022-09-17T10:20:56;14.60;99.90
42201;DHT22;27869;51.442;7.540;2022-09-17T10:23:25;14.60;99.90
42201;DHT22;27869;51.442;7.540;2022-09-17T10:25:53;14.80;99.90
42201;DHT22;27869;51.442;7.540;2022-09-17T10:28:46;14.80;99.90
42201;DHT22;27869;51.442;7.540;2022-09-17T10:31:15;14.90;99.90
42201;DHT22;27869;51.442;7.540;2022-09-17T10:33:57;14.80;99.90
42201;DHT22;27869;51.442;7.540;2022-09-17T10:36:38;14.80;99.90
42201;DHT22;27869;51.442;7.540;2022-09-17T10:42:02;14.80;99.90
42201;DHT22;27869;51.442;7.540;2022-09-17T10:44:31;14.90;99.90
42201;DHT22;27869;51.442;7.540;2022-09-17T10:47:06;15.10;99.90
42201;DHT22;27869;51.442;7.540;2022-09-17T10:49:36;15.10;99.90
42201;DHT22;27869;51.442;7.540;2022-09-17T10:52:13;15.30;99.90
42201;DHT22;27869;51.442;7.540;2022-09-17T10:55:01;15.30;99.90
42201;DHT22;27869;51.442;7.540;2022-09-17T10:57:42;15.40;99.90
42201;DHT22;27869;51.442;7.540;2022-09-17T11:00:14;15.60;99.90
42201;DHT22;27869;51.442;7.540;2022-09-17T11:06:21;15.80;99.90
42201;DHT22;27869;51.442;7.540;2022-09-17T11:08:55;15.90;99.90
42201;DHT22;27869;51.442;7.540;2022-09-17T11:11:34;15.90;99.90
42201;DHT22;27869;51.442;7.540;2022-09-17T11:14:12;15.80;99.90
42201;DHT22;27869;51.442;7.540;2022-09-17T11:16:49;15.80;99.90
42201;DHT22;27869;51.442;7.540;2022-09-17T11:19:26;15.80;99.90
42201;DHT22;27869;51.442;7.540;2022-09-17T11:22:01;15.90;99.90
42201;DHT22;27869;51.442;7.540;2022-09-17T11:24:52;15.90;99.90
42201;DHT22;27869;51.442;7.540;2022-09-17T11:27:37;15.90;99.90
42201;DHT22;27869;51.442;7.540;2022-09-17T11:30:09;15.90;99.90
42201;DHT22;27869;51.442;7.540;2022-09-17T11:33:11;15.90;99.90
42201;DHT22;27869;51.442;7.540;2022-09-17T11:35:46;15.80;99.90
42201;DHT22;27869;51.442;7.540;2022-09-17T11:38:19;15.80;99.90
42201;DHT22;27869;51.442;7.540;2022-09-17T11:40:57;15.70;99.90
42201;DHT22;27869;51.442;7.540;2022-09-17T11:43:28;15.60;99.90
42201;DHT22;27869;51.442;7.540;2022-09-17T11:46:02;15.50;99.90
42201;DHT22;27869;51.442;7.540;2022-09-17T11:48:37;15.40;99.90
42201;DHT22;27869;51.442;7.540;2022-09-17T11:51:18;15.40;99.90
42201;DHT22;27869;51.442;7.540;2022-09-17T11:53:48;15.50;99.90
42201;DHT22;27869;51.442;7.540;2022-09-17T11:56:23;15.50;99.90
42201;DHT22;27869;51.442;7.540;2022-09-17T11:58:54;15.50;99.90
42201;DHT22;27869;51.442;7.540;2022-09-17T12:01:28;15.40;99.90
42201;DHT22;27869;51.442;7.540;2022-09-17T12:04:00;15.40;99.90
42201;DHT22;27869;51.442;7.540;2022-09-17T12:06:34;15.30;99.90
42201;DHT22;27869;51.442;7.540;2022-09-17T12:09:09;15.30;99.90
42201;DHT22;27869;51.442;7.540;2022-09-17T12:11:45;15.30;99.90
42201;DHT22;27869;51.442;7.540;2022-09-17T12:14:18;15.20;99.90
42201;DHT22;27869;51.442;7.540;2022-09-17T12:16:49;15.10;99.90
42201;DHT22;27869;51.442;7.540;2022-09-17T12:19:22;14.90;99.90
42201;DHT22;27869;51.442;7.540;2022-09-17T12:21:53;14.90;99.90
42201;DHT22;27869;51.442;7.540;2022-09-17T12:24:24;14.80;99.90
42201;DHT22;27869;51.442;7.540;2022-09-17T12:27:07;14.90;99.90
42201;DHT22;27869;51.442;7.540;2022-09-17T12:30:07;14.90;99.90
42201;DHT22;27869;51.442;7.540;2022-09-17T12:32:43;14.80;99.90
42201;DHT22;27869;51.442;7.540;2022-09-17T12:35:23;14.70;99.90
42201;DHT22;27869;51.442;7.540;2022-09-17T12:38:04;14.50;99.90
42201;DHT22;27869;51.442;7.540;2022-09-17T12:40:34;14.30;99.90
42201;DHT22;27869;51.442;7.540;2022-09-17T12:43:16;14.10;99.90
42201;DHT22;27869;51.442;7.540;2022-09-17T12:45:56;14.00;99.90
42201;DHT22;27869;51.442;7.540;2022-09-17T12:48:53;14.00;99.90
42201;DHT22;27869;51.442;7.540;2022-09-17T12:51:40;14.00;99.90
42201;DHT22;27869;51.442;7.540;2022-09-17T12:54:17;13.90;99.90
42201;DHT22;27869;51.442;7.540;2022-09-17T12:56:55;13.90;99.90
42201;DHT22;27869;51.442;7.540;2022-09-17T12:59:28;14.00;99.90
42201;DHT22;27869;51.442;7.540;2022-09-17T13:02:00;13.90;99.90
42201;DHT22;27869;51.442;7.540;2022-09-17T13:10:35;13.60;99.90
42201;DHT22;27869;51.442;7.540;2022-09-17T13:13:18;13.50;99.90
42201;DHT22;27869;51.442;7.540;2022-09-17T13:15:56;13.50;99.90
42201;DHT22;27869;51.442;7.540;2022-09-17T13:18:30;13.50;99.90
42201;DHT22;27869;51.442;7.540;2022-09-17T13:21:05;13.40;99.90
42201;DHT22;27869;51.442;7.540;2022-09-17T13:23:39;13.50;99.90
42201;DHT22;27869;51.442;7.540;2022-09-17T13:26:09;13.50;99.90
42201;DHT22;27869;51.442;7.540;2022-09-17T13:28:42;13.50;99.90
42201;DHT22;27869;51.442;7.540;2022-09-17T13:31:11;13.50;99.90
42201;DHT22;27869;51.442;7.540;2022-09-17T13:33:52;13.40;99.90
42201;DHT22;27869;51.442;7.540;2022-09-17T13:36:39;13.30;99.90
42201;DHT22;27869;51.442;7.540;2022-09-17T13:39:07;13.20;99.90
42201;DHT22;27869;51.442;7.540;2022-09-17T13:41:37;13.10;99.90
42201;DHT22;27869;51.442;7.540;2022-09-17T13:44:06;13.10;99.90
42201;DHT22;27869;51.442;7.540;2022-09-17T13:46:36;13.20;99.90
42201;DHT22;27869;51.442;7.540;2022-09-17T13:49:10;13.20;99.90
42201;DHT22;27869;51.442;7.540;2022-09-17T13:51:56;13.30;99.90
42201;DHT22;27869;51.442;7.540;2022-09-17T13:54:35;13.40;99.90
42201;DHT22;27869;51.442;7.540;2022-09-17T13:57:12;13.40;99.90
42201;DHT22;27869;51.442;7.540;2022-09-17T13:59:54;13.50;99.90
42201;DHT22;27869;51.442;7.540;2022-09-17T14:02:38;13.40;99.90
42201;DHT22;27869;51.442;7.540;2022-09-17T14:05:35;13.50;99.90
42201;DHT22;27869;51.442;7.540;2022-09-17T14:08:22;13.50;99.90
42201;DHT22;27869;51.442;7.540;2022-09-17T14:10:52;13.50;99.90
42201;DHT22;27869;51.442;7.540;2022-09-17T14:16:45;13.50;99.90
42201;DHT22;27869;51.442;7.540;2022-09-17T14:19:28;13.50;99.90
42201;DHT22;27869;51.442;7.540;2022-09-17T14:22:00;13.50;99.90
42201;DHT22;27869;51.442;7.540;2022-09-17T14:24:37;13.50;99.90
42201;DHT22;27869;51.442;7.540;2022-09-17T14:27:12;13.50;99.90
42201;DHT22;27869;51.442;7.540;2022-09-17T14:29:58;13.50;99.90
42201;DHT22;27869;51.442;7.540;2022-09-17T14:32:29;13.60;99.90
42201;DHT22;27869;51.442;7.540;2022-09-17T14:34:59;13.60;99.90
42201;DHT22;27869;51.442;7.540;2022-09-17T14:37:27;13.60;99.90
42201;DHT22;27869;51.442;7.540;2022-09-17T14:39:54;13.60;99.90
42201;DHT22;27869;51.442;7.540;2022-09-17T14:42:24;13.50;99.90
42201;DHT22;27869;51.442;7.540;2022-09-17T14:44:57;13.50;99.90
42201;DHT22;27869;51.442;7.540;2022-09-17T14:47:24;13.40;99.90
42201;DHT22;27869;51.442;7.540;2022-09-17T14:49:52;13.40;99.90
42201;DHT22;27869;51.442;7.540;2022-09-17T14:52:26;13.40;99.90
42201;DHT22;27869;51.442;7.540;2022-09-17T14:55:17;13.40;99.90
42201;DHT22;27869;51.442;7.540;2022-09-17T14:57:45;13.40;99.90
42201;DHT22;27869;51.442;7.540;2022-09-17T15:00:17;13.40;99.90
42201;DHT22;27869;51.442;7.540;2022-09-17T15:02:50;13.40;99.90
42201;DHT22;27869;51.442;7.540;2022-09-17T15:05:22;13.40;99.90
42201;DHT22;27869;51.442;7.540;2022-09-17T15:08:04;13.30;99.90
42201;DHT22;27869;51.442;7.540;2022-09-17T15:10:34;13.30;99.90
42201;DHT22;27869;51.442;7.540;2022-09-17T15:13:02;13.20;99.90
42201;DHT22;27869;51.442;7.540;2022-09-17T15:15:29;13.10;99.90
42201;DHT22;27869;51.442;7.540;2022-09-17T15:17:57;13.10;99.90
42201;DHT22;27869;51.442;7.540;2022-09-17T15:20:27;13.10;99.90
42201;DHT22;27869;51.442;7.540;2022-09-17T15:23:05;13.20;99.90
42201;DHT22;27869;51.442;7.540;2022-09-17T15:25:35;13.30;99.90
42201;DHT22;27869;51.442;7.540;2022-09-17T15:28:12;13.40;99.90
42201;DHT22;27869;51.442;7.540;2022-09-17T15:30:41;13.40;99.90
42201;DHT22;27869;51.442;7.540;2022-09-17T15:33:08;13.50;99.90
42201;DHT22;27869;51.442;7.540;2022-09-17T15:35:37;13.50;99.90
42201;DHT22;27869;51.442;7.540;2022-09-17T15:38:19;13.50;99.90
42201;DHT22;27869;51.442;7.540;2022-09-17T15:40:47;13.50;99.90
42201;DHT22;27869;51.442;7.540;2022-09-17T15:43:16;13.50;99.90
42201;DHT22;27869;51.442;7.540;2022-09-17T15:45:44;13.50;99.90
42201;DHT22;27869;51.442;7.540;2022-09-17T15:48:21;13.60;99.90
42201;DHT22;27869;51.442;7.540;2022-09-17T15:50:50;13.60;99.90
42201;DHT22;27869;51.442;7.540;2022-09-17T15:53:23;13.50;99.90
42201;DHT22;27869;51.442;7.540;2022-09-17T15:56:03;13.50;99.90
42201;DHT22;27869;51.442;7.540;2022-09-17T15:58:36;13.50;99.90
42201;DHT22;27869;51.442;7.540;2022-09-17T16:01:49;13.50;99.90
42201;DHT22;27869;51.442;7.540;2022-09-17T16:04:27;13.50;99.90
42201;DHT22;27869;51.442;7.540;2022-09-17T16:07:25;13.50;99.90
42201;DHT22;27869;51.442;7.540;2022-09-17T16:09:54;13.40;99.90
42201;DHT22;27869;51.442;7.540;2022-09-17T16:12:25;13.40;99.90
42201;DHT22;27869;51.442;7.540;2022-09-17T16:14:55;13.40;99.90
42201;DHT22;27869;51.442;7.540;2022-09-17T16:17:26;13.30;99.90
42201;DHT22;27869;51.442;7.540;2022-09-17T16:19:54;13.30;99.90
42201;DHT22;27869;51.442;7.540;2022-09-17T16:22:22;13.30;99.90